sensor_id;sensor_type;location;lat;lon;timestamp;pressure;altitude;pressure_sealevel;temperature;humidity
20930;BME280;21895;47.072;15.132;2023-08-17T00:02:01;96979.00;;;18.62;86.64
20930;BME280;21895;47.072;15.132;2023-08-17T00:04:27;96982.00;;;18.62;86.63
20930;BME280;21895;47.072;15.132;2023-08-17T00:06:54;96988.00;;;18.61;86.50
20930;BME280;21895;47.072;15.132;2023-08-17T00:09:20;96996.00;;;18.63;86.86
20930;BME280;21895;47.072;15.132;2023-08-17T00:11:48;96993.00;;;18.62;87.62
20930;BME280;21895;47.072;15.132;2023-08-17T00:14:14;96998.00;;;18.73;87.75
20930;BME280;21895;47.072;15.132;2023-08-17T00:16:41;96998.00;;;18.95;88.33
20930;BME280;21895;47.072;15.132;2023-08-17T00:19:08;97006.00;;;19.01;86.00
20930;BME280;21895;47.072;15.132;2023-08-17T00:21:34;97004.00;;;18.88;86.33
20930;BME280;21895;47.072;15.132;2023-08-17T00:24:02;96997.00;;;18.91;86.51
20930;BME280;21895;47.072;15.132;2023-08-17T00:26:28;96994.00;;;18.99;88.09
20930;BME280;21895;47.072;15.132;2023-08-17T00:28:55;96990.00;;;19.02;88.69
20930;BME280;21895;47.072;15.132;2023-08-17T00:31:21;96984.00;;;19.01;88.85
20930;BME280;21895;47.072;15.132;2023-08-17T00:33:48;96990.00;;;19.12;88.37
20930;BME280;21895;47.072;15.132;2023-08-17T00:36:14;96986.00;;;19.18;87.92
20930;BME280;21895;47.072;15.132;2023-08-17T00:38:41;96990.00;;;19.14;87.61
20930;BME280;21895;47.072;15.132;2023-08-17T00:41:08;96996.00;;;19.18;87.49
20930;BME280;21895;47.072;15.132;2023-08-17T00:43:34;96977.00;;;19.19;87.08
20930;BME280;21895;47.072;15.132;2023-08-17T00:46:01;96974.00;;;19.19;87.38
20930;BME280;21895;47.072;15.132;2023-08-17T00:48:29;96976.00;;;19.11;87.54
20930;BME280;21895;47.072;15.132;2023-08-17T00:50:57;96975.00;;;19.04;87.67
20930;BME280;21895;47.072;15.132;2023-08-17T00:53:27;96986.00;;;18.99;87.75
20930;BME280;21895;47.072;15.132;2023-08-17T00:55:56;96976.00;;;19.01;87.46
20930;BME280;21895;47.072;15.132;2023-08-17T00:58:24;96988.00;;;18.95;87.72
20930;BME280;21895;47.072;15.132;2023-08-17T01:00:51;96983.00;;;18.92;87.70
20930;BME280;21895;47.072;15.132;2023-08-17T01:03:18;96978.00;;;18.93;87.09
20930;BME280;21895;47.072;15.132;2023-08-17T01:05:47;96982.00;;;18.93;86.19
20930;BME280;21895;47.072;15.132;2023-08-17T01:08:13;96971.00;;;18.84;86.04
20930;BME280;21895;47.072;15.132;2023-08-17T01:12:29;96964.00;;;18.84;86.30
20930;BME280;21895;47.072;15.132;2023-08-17T01:15:28;96964.00;;;18.88;85.75
20930;BME280;21895;47.072;15.132;2023-08-17T01:18:23;96962.00;;;18.75;86.37
20930;BME280;21895;47.072;15.132;2023-08-17T01:20:53;96951.00;;;18.73;86.24
20930;BME280;21895;47.072;15.132;2023-08-17T01:23:20;96959.00;;;18.70;85.55
20930;BME280;21895;47.072;15.132;2023-08-17T01:25:47;96956.00;;;18.58;84.22
20930;BME280;21895;47.072;15.132;2023-08-17T01:28:14;96949.00;;;18.57;84.06
20930;BME280;21895;47.072;15.132;2023-08-17T01:31:02;96951.00;;;18.52;83.96
20930;BME280;21895;47.072;15.132;2023-08-17T01:33:42;96951.00;;;18.40;84.53
20930;BME280;21895;47.072;15.132;2023-08-17T01:36:37;96955.00;;;18.21;84.27
20930;BME280;21895;47.072;15.132;2023-08-17T01:39:08;96951.00;;;18.04;85.54
20930;BME280;21895;47.072;15.132;2023-08-17T01:41:37;96950.00;;;18.00;86.74
20930;BME280;21895;47.072;15.132;2023-08-17T01:44:05;96958.00;;;18.18;87.06
20930;BME280;21895;47.072;15.132;2023-08-17T01:46:33;96956.00;;;18.33;87.27
20930;BME280;21895;47.072;15.132;2023-08-17T01:49:00;96954.00;;;18.16;87.55
20930;BME280;21895;47.072;15.132;2023-08-17T01:51:27;96952.00;;;18.15;87.77
20930;BME280;21895;47.072;15.132;2023-08-17T01:53:53;96952.00;;;18.15;86.38
20930;BME280;21895;47.072;15.132;2023-08-17T01:56:20;96952.00;;;18.11;86.08
20930;BME280;21895;47.072;15.132;2023-08-17T01:58:47;96956.00;;;18.00;87.38
20930;BME280;21895;47.072;15.132;2023-08-17T02:01:13;96955.00;;;18.01;88.45
20930;BME280;21895;47.072;15.132;2023-08-17T02:03:40;96955.00;;;17.93;87.51
20930;BME280;21895;47.072;15.132;2023-08-17T02:06:06;96958.00;;;17.88;87.81
20930;BME280;21895;47.072;15.132;2023-08-17T02:08:33;96968.00;;;17.88;87.56
20930;BME280;21895;47.072;15.132;2023-08-17T02:11:01;96951.00;;;17.87;87.03
20930;BME280;21895;47.072;15.132;2023-08-17T02:13:28;96953.00;;;17.80;85.74
20930;BME280;21895;47.072;15.132;2023-08-17T02:15:54;96953.00;;;17.64;86.08
20930;BME280;21895;47.072;15.132;2023-08-17T02:18:21;96948.00;;;17.54;87.43
20930;BME280;21895;47.072;15.132;2023-08-17T02:20:47;96955.00;;;17.73;87.69
20930;BME280;21895;47.072;15.132;2023-08-17T02:23:14;96958.00;;;17.83;88.26
20930;BME280;21895;47.072;15.132;2023-08-17T02:25:41;96949.00;;;17.89;87.88
20930;BME280;21895;47.072;15.132;2023-08-17T02:28:07;96958.00;;;17.96;86.58
20930;BME280;21895;47.072;15.132;2023-08-17T02:30:34;96952.00;;;17.93;86.15
20930;BME280;21895;47.072;15.132;2023-08-17T02:33:00;96959.00;;;17.83;86.04
20930;BME280;21895;47.072;15.132;2023-08-17T02:35:27;96952.00;;;17.76;88.42
20930;BME280;21895;47.072;15.132;2023-08-17T02:37:54;96954.00;;;17.78;88.28
20930;BME280;21895;47.072;15.132;2023-08-17T02:40:21;96960.00;;;17.76;88.91
20930;BME280;21895;47.072;15.132;2023-08-17T02:42:47;96965.00;;;17.85;86.84
20930;BME280;21895;47.072;15.132;2023-08-17T02:45:14;96976.00;;;17.79;85.45
20930;BME280;21895;47.072;15.132;2023-08-17T02:47:40;96972.00;;;17.66;86.18
20930;BME280;21895;47.072;15.132;2023-08-17T02:50:08;96966.00;;;17.57;85.38
20930;BME280;21895;47.072;15.132;2023-08-17T02:52:34;96969.00;;;17.61;85.44
20930;BME280;21895;47.072;15.132;2023-08-17T02:55:03;96974.00;;;17.55;85.81
20930;BME280;21895;47.072;15.132;2023-08-17T02:57:29;96976.00;;;17.52;85.77
20930;BME280;21895;47.072;15.132;2023-08-17T02:59:56;96973.00;;;17.53;84.53
20930;BME280;21895;47.072;15.132;2023-08-17T03:02:22;96970.00;;;17.46;84.81
20930;BME280;21895;47.072;15.132;2023-08-17T03:04:49;96976.00;;;17.38;85.55
20930;BME280;21895;47.072;15.132;2023-08-17T03:07:16;96986.00;;;17.22;87.05
20930;BME280;21895;47.072;15.132;2023-08-17T03:09:42;96973.00;;;17.40;88.49
20930;BME280;21895;47.072;15.132;2023-08-17T03:12:09;96977.00;;;17.56;88.02
20930;BME280;21895;47.072;15.132;2023-08-17T03:14:35;96977.00;;;17.57;87.11
20930;BME280;21895;47.072;15.132;2023-08-17T03:17:02;96976.00;;;17.48;86.84
20930;BME280;21895;47.072;15.132;2023-08-17T03:19:28;96976.00;;;17.33;88.09
20930;BME280;21895;47.072;15.132;2023-08-17T03:21:55;96973.00;;;17.40;88.28
20930;BME280;21895;47.072;15.132;2023-08-17T03:24:21;96975.00;;;17.51;88.69
20930;BME280;21895;47.072;15.132;2023-08-17T03:26:48;96984.00;;;17.70;87.65
20930;BME280;21895;47.072;15.132;2023-08-17T03:29:15;96970.00;;;17.67;88.22
20930;BME280;21895;47.072;15.132;2023-08-17T03:31:41;96978.00;;;18.06;86.13
20930;BME280;21895;47.072;15.132;2023-08-17T03:34:08;96988.00;;;17.81;86.79
20930;BME280;21895;47.072;15.132;2023-08-17T03:36:34;96989.00;;;17.79;87.89
20930;BME280;21895;47.072;15.132;2023-08-17T03:39:01;96992.00;;;17.72;88.74
20930;BME280;21895;47.072;15.132;2023-08-17T03:41:28;96983.00;;;17.69;87.49
20930;BME280;21895;47.072;15.132;2023-08-17T03:43:54;96991.00;;;17.65;83.40
20930;BME280;21895;47.072;15.132;2023-08-17T03:46:21;96985.00;;;17.34;83.61
20930;BME280;21895;47.072;15.132;2023-08-17T03:48:48;96994.00;;;17.19;85.56
20930;BME280;21895;47.072;15.132;2023-08-17T03:51:14;96991.00;;;17.24;85.82
20930;BME280;21895;47.072;15.132;2023-08-17T03:53:41;96991.00;;;17.15;86.70
20930;BME280;21895;47.072;15.132;2023-08-17T03:56:07;96986.00;;;17.14;87.87
20930;BME280;21895;47.072;15.132;2023-08-17T03:58:34;96991.00;;;17.20;87.76
20930;BME280;21895;47.072;15.132;2023-08-17T04:01:01;96993.00;;;17.13;88.14
20930;BME280;21895;47.072;15.132;2023-08-17T04:03:28;96986.00;;;17.24;87.91
20930;BME280;21895;47.072;15.132;2023-08-17T04:05:55;96986.00;;;17.09;88.49
20930;BME280;21895;47.072;15.132;2023-08-17T04:08:21;96990.00;;;17.13;88.59
20930;BME280;21895;47.072;15.132;2023-08-17T04:10:48;96991.00;;;17.65;87.19
20930;BME280;21895;47.072;15.132;2023-08-17T04:13:14;96989.00;;;17.60;88.61
20930;BME280;21895;47.072;15.132;2023-08-17T04:15:41;96984.00;;;17.70;88.51
20930;BME280;21895;47.072;15.132;2023-08-17T04:18:08;96986.00;;;17.65;88.95
20930;BME280;21895;47.072;15.132;2023-08-17T04:20:35;96989.00;;;17.68;86.41
20930;BME280;21895;47.072;15.132;2023-08-17T04:23:01;96982.00;;;17.55;85.56
20930;BME280;21895;47.072;15.132;2023-08-17T04:25:28;96982.00;;;17.42;84.94
20930;BME280;21895;47.072;15.132;2023-08-17T04:27:54;96980.00;;;17.41;85.88
20930;BME280;21895;47.072;15.132;2023-08-17T04:30:23;96980.00;;;17.54;88.91
20930;BME280;21895;47.072;15.132;2023-08-17T04:32:49;96975.00;;;17.65;91.00
20930;BME280;21895;47.072;15.132;2023-08-17T04:35:20;96977.00;;;17.75;91.39
20930;BME280;21895;47.072;15.132;2023-08-17T04:37:46;96979.00;;;17.88;90.63
20930;BME280;21895;47.072;15.132;2023-08-17T04:40:15;96984.00;;;18.04;89.79
20930;BME280;21895;47.072;15.132;2023-08-17T04:42:42;96978.00;;;18.21;88.21
20930;BME280;21895;47.072;15.132;2023-08-17T04:45:09;96974.00;;;18.27;87.46
20930;BME280;21895;47.072;15.132;2023-08-17T04:47:36;96972.00;;;18.31;87.68
20930;BME280;21895;47.072;15.132;2023-08-17T04:50:03;96972.00;;;18.34;86.13
20930;BME280;21895;47.072;15.132;2023-08-17T04:52:30;96971.00;;;18.30;85.55
20930;BME280;21895;47.072;15.132;2023-08-17T04:54:56;96971.00;;;18.33;84.29
20930;BME280;21895;47.072;15.132;2023-08-17T04:57:23;96975.00;;;18.26;83.80
20930;BME280;21895;47.072;15.132;2023-08-17T04:59:51;96978.00;;;18.24;83.01
20930;BME280;21895;47.072;15.132;2023-08-17T05:02:17;96974.00;;;17.96;83.41
20930;BME280;21895;47.072;15.132;2023-08-17T05:04:46;96984.00;;;17.96;84.02
20930;BME280;21895;47.072;15.132;2023-08-17T05:07:12;96991.00;;;17.95;85.11
20930;BME280;21895;47.072;15.132;2023-08-17T05:09:39;96997.00;;;17.99;85.55
20930;BME280;21895;47.072;15.132;2023-08-17T05:12:06;96988.00;;;17.90;85.18
20930;BME280;21895;47.072;15.132;2023-08-17T05:14:33;96992.00;;;17.99;85.69
20930;BME280;21895;47.072;15.132;2023-08-17T05:17:00;96982.00;;;18.06;85.82
20930;BME280;21895;47.072;15.132;2023-08-17T05:19:26;96984.00;;;18.16;85.94
20930;BME280;21895;47.072;15.132;2023-08-17T05:21:53;96982.00;;;18.23;86.13
20930;BME280;21895;47.072;15.132;2023-08-17T05:24:20;96979.00;;;18.49;84.93
20930;BME280;21895;47.072;15.132;2023-08-17T05:26:46;96981.00;;;18.60;84.20
20930;BME280;21895;47.072;15.132;2023-08-17T05:29:13;96984.00;;;18.55;84.65
20930;BME280;21895;47.072;15.132;2023-08-17T05:31:39;96987.00;;;18.79;84.26
20930;BME280;21895;47.072;15.132;2023-08-17T05:34:08;96979.00;;;18.97;84.02
20930;BME280;21895;47.072;15.132;2023-08-17T05:36:34;96988.00;;;19.29;83.79
20930;BME280;21895;47.072;15.132;2023-08-17T05:39:01;96987.00;;;19.66;81.93
20930;BME280;21895;47.072;15.132;2023-08-17T05:41:27;96986.00;;;19.91;80.76
20930;BME280;21895;47.072;15.132;2023-08-17T05:43:54;96993.00;;;20.28;80.09
20930;BME280;21895;47.072;15.132;2023-08-17T05:46:20;96989.00;;;20.44;79.23
20930;BME280;21895;47.072;15.132;2023-08-17T05:48:47;96989.00;;;20.65;78.20
20930;BME280;21895;47.072;15.132;2023-08-17T05:51:13;96985.00;;;20.81;77.48
20930;BME280;21895;47.072;15.132;2023-08-17T05:53:40;96984.00;;;21.08;76.13
20930;BME280;21895;47.072;15.132;2023-08-17T05:56:07;96986.00;;;21.35;73.99
20930;BME280;21895;47.072;15.132;2023-08-17T05:58:34;96973.00;;;21.71;72.48
20930;BME280;21895;47.072;15.132;2023-08-17T06:01:08;96973.00;;;21.93;73.53
20930;BME280;21895;47.072;15.132;2023-08-17T06:03:36;96978.00;;;22.14;71.71
20930;BME280;21895;47.072;15.132;2023-08-17T06:06:04;96979.00;;;22.33;71.95
20930;BME280;21895;47.072;15.132;2023-08-17T06:08:31;96975.00;;;22.54;71.32
20930;BME280;21895;47.072;15.132;2023-08-17T06:10:58;96977.00;;;22.82;71.13
20930;BME280;21895;47.072;15.132;2023-08-17T06:13:25;96983.00;;;22.95;71.26
20930;BME280;21895;47.072;15.132;2023-08-17T06:15:51;96985.00;;;23.03;71.28
20930;BME280;21895;47.072;15.132;2023-08-17T06:18:18;96985.00;;;23.25;69.08
20930;BME280;21895;47.072;15.132;2023-08-17T06:20:45;96984.00;;;23.12;70.06
20930;BME280;21895;47.072;15.132;2023-08-17T06:23:13;96975.00;;;23.25;70.94
20930;BME280;21895;47.072;15.132;2023-08-17T06:25:39;96973.00;;;23.18;70.22
20930;BME280;21895;47.072;15.132;2023-08-17T06:28:06;96969.00;;;23.40;69.83
20930;BME280;21895;47.072;15.132;2023-08-17T06:30:33;96968.00;;;23.53;69.80
20930;BME280;21895;47.072;15.132;2023-08-17T06:32:59;96975.00;;;23.67;68.12
20930;BME280;21895;47.072;15.132;2023-08-17T06:35:26;96970.00;;;23.88;67.26
20930;BME280;21895;47.072;15.132;2023-08-17T06:37:53;96975.00;;;24.07;66.42
20930;BME280;21895;47.072;15.132;2023-08-17T06:40:23;96986.00;;;24.36;66.26
20930;BME280;21895;47.072;15.132;2023-08-17T06:42:49;96976.00;;;24.52;66.04
20930;BME280;21895;47.072;15.132;2023-08-17T06:45:16;96980.00;;;24.53;65.91
20930;BME280;21895;47.072;15.132;2023-08-17T06:47:45;96974.00;;;24.74;64.27
20930;BME280;21895;47.072;15.132;2023-08-17T06:50:14;96980.00;;;25.02;63.96
20930;BME280;21895;47.072;15.132;2023-08-17T06:52:41;96978.00;;;25.06;63.26
20930;BME280;21895;47.072;15.132;2023-08-17T06:55:08;96982.00;;;25.31;62.32
20930;BME280;21895;47.072;15.132;2023-08-17T06:57:35;96987.00;;;25.44;61.20
20930;BME280;21895;47.072;15.132;2023-08-17T07:00:03;96979.00;;;25.67;61.48
20930;BME280;21895;47.072;15.132;2023-08-17T07:02:32;96985.00;;;25.90;61.29
20930;BME280;21895;47.072;15.132;2023-08-17T07:05:18;96988.00;;;26.30;58.52
20930;BME280;21895;47.072;15.132;2023-08-17T07:07:45;96992.00;;;26.77;57.26
20930;BME280;21895;47.072;15.132;2023-08-17T07:10:11;97003.00;;;27.00;56.04
20930;BME280;21895;47.072;15.132;2023-08-17T07:12:39;96997.00;;;27.38;55.35
20930;BME280;21895;47.072;15.132;2023-08-17T07:15:07;96994.00;;;27.85;54.26
20930;BME280;21895;47.072;15.132;2023-08-17T07:17:34;96992.00;;;27.91;53.49
20930;BME280;21895;47.072;15.132;2023-08-17T07:20:00;96991.00;;;28.32;54.01
20930;BME280;21895;47.072;15.132;2023-08-17T07:22:30;96988.00;;;28.58;52.37
20930;BME280;21895;47.072;15.132;2023-08-17T07:24:57;96994.00;;;28.30;52.25
20930;BME280;21895;47.072;15.132;2023-08-17T07:27:23;96992.00;;;28.22;52.23
20930;BME280;21895;47.072;15.132;2023-08-17T07:29:51;96996.00;;;27.90;52.42
20930;BME280;21895;47.072;15.132;2023-08-17T07:32:18;96996.00;;;27.76;54.85
20930;BME280;21895;47.072;15.132;2023-08-17T07:34:45;96992.00;;;28.10;52.71
20930;BME280;21895;47.072;15.132;2023-08-17T07:37:11;96998.00;;;27.89;52.62
20930;BME280;21895;47.072;15.132;2023-08-17T07:39:41;97003.00;;;27.42;53.90
20930;BME280;21895;47.072;15.132;2023-08-17T07:42:08;96999.00;;;27.08;54.29
20930;BME280;21895;47.072;15.132;2023-08-17T07:44:35;97008.00;;;26.97;54.85
20930;BME280;21895;47.072;15.132;2023-08-17T07:47:02;97015.00;;;26.80;55.92
20930;BME280;21895;47.072;15.132;2023-08-17T07:49:29;97009.00;;;26.62;56.48
20930;BME280;21895;47.072;15.132;2023-08-17T07:57:59;97009.00;;;26.74;56.56
20930;BME280;21895;47.072;15.132;2023-08-17T08:00:26;97002.00;;;26.51;58.24
20930;BME280;21895;47.072;15.132;2023-08-17T08:02:52;97002.00;;;26.44;58.07
20930;BME280;21895;47.072;15.132;2023-08-17T08:05:19;97000.00;;;26.62;56.61
20930;BME280;21895;47.072;15.132;2023-08-17T08:07:45;96999.00;;;26.44;57.84
20930;BME280;21895;47.072;15.132;2023-08-17T08:10:12;96994.00;;;26.43;57.53
20930;BME280;21895;47.072;15.132;2023-08-17T08:12:39;96988.00;;;26.73;57.31
20930;BME280;21895;47.072;15.132;2023-08-17T08:15:06;96987.00;;;27.28;56.27
20930;BME280;21895;47.072;15.132;2023-08-17T08:17:33;96985.00;;;27.38;55.25
20930;BME280;21895;47.072;15.132;2023-08-17T08:20:00;96982.00;;;27.53;54.13
20930;BME280;21895;47.072;15.132;2023-08-17T08:22:26;96980.00;;;27.72;53.00
20930;BME280;21895;47.072;15.132;2023-08-17T08:24:53;96977.00;;;28.06;52.16
20930;BME280;21895;47.072;15.132;2023-08-17T08:27:19;96982.00;;;28.07;52.24
20930;BME280;21895;47.072;15.132;2023-08-17T08:29:46;96981.00;;;28.22;51.44
20930;BME280;21895;47.072;15.132;2023-08-17T08:32:13;96976.00;;;28.26;52.25
20930;BME280;21895;47.072;15.132;2023-08-17T08:34:39;96977.00;;;28.34;51.63
20930;BME280;21895;47.072;15.132;2023-08-17T08:37:06;96983.00;;;28.60;51.46
20930;BME280;21895;47.072;15.132;2023-08-17T08:39:32;96977.00;;;28.69;51.35
20930;BME280;21895;47.072;15.132;2023-08-17T08:42:13;96969.00;;;28.83;51.02
20930;BME280;21895;47.072;15.132;2023-08-17T08:44:40;96968.00;;;29.03;50.87
20930;BME280;21895;47.072;15.132;2023-08-17T08:47:07;96977.00;;;29.21;49.76
20930;BME280;21895;47.072;15.132;2023-08-17T08:49:39;96968.00;;;29.38;49.48
20930;BME280;21895;47.072;15.132;2023-08-17T08:52:14;96971.00;;;29.47;48.65
20930;BME280;21895;47.072;15.132;2023-08-17T08:54:50;96970.00;;;29.44;50.30
20930;BME280;21895;47.072;15.132;2023-08-17T08:57:21;96966.00;;;29.52;47.30
20930;BME280;21895;47.072;15.132;2023-08-17T08:59:48;96970.00;;;29.42;48.20
20930;BME280;21895;47.072;15.132;2023-08-17T09:02:16;96970.00;;;29.48;48.08
20930;BME280;21895;47.072;15.132;2023-08-17T09:04:43;96962.00;;;29.52;48.59
20930;BME280;21895;47.072;15.132;2023-08-17T09:07:12;96962.00;;;29.50;48.67
20930;BME280;21895;47.072;15.132;2023-08-17T09:09:40;96960.00;;;29.52;47.34
20930;BME280;21895;47.072;15.132;2023-08-17T09:12:08;96959.00;;;29.53;47.57
20930;BME280;21895;47.072;15.132;2023-08-17T09:14:36;96964.00;;;29.69;48.41
20930;BME280;21895;47.072;15.132;2023-08-17T09:17:04;96952.00;;;29.91;46.91
20930;BME280;21895;47.072;15.132;2023-08-17T09:19:32;96951.00;;;29.55;48.64
20930;BME280;21895;47.072;15.132;2023-08-17T09:22:00;96958.00;;;29.86;47.53
20930;BME280;21895;47.072;15.132;2023-08-17T09:24:37;96950.00;;;29.70;47.32
20930;BME280;21895;47.072;15.132;2023-08-17T09:27:04;96962.00;;;29.88;47.85
20930;BME280;21895;47.072;15.132;2023-08-17T09:29:36;96962.00;;;30.06;47.64
20930;BME280;21895;47.072;15.132;2023-08-17T09:32:07;96951.00;;;30.38;45.37
20930;BME280;21895;47.072;15.132;2023-08-17T09:34:34;96954.00;;;29.90;47.88
20930;BME280;21895;47.072;15.132;2023-08-17T09:37:04;96943.00;;;29.98;48.46
20930;BME280;21895;47.072;15.132;2023-08-17T09:39:31;96950.00;;;30.11;46.95
20930;BME280;21895;47.072;15.132;2023-08-17T09:41:59;96939.00;;;30.18;46.39
20930;BME280;21895;47.072;15.132;2023-08-17T09:44:27;96936.00;;;30.14;48.08
20930;BME280;21895;47.072;15.132;2023-08-17T09:46:56;96935.00;;;30.68;48.13
20930;BME280;21895;47.072;15.132;2023-08-17T09:49:24;96936.00;;;30.30;46.16
20930;BME280;21895;47.072;15.132;2023-08-17T09:51:51;96936.00;;;29.98;46.72
20930;BME280;21895;47.072;15.132;2023-08-17T09:54:24;96940.00;;;29.81;48.09
20930;BME280;21895;47.072;15.132;2023-08-17T09:56:54;96941.00;;;29.69;48.59
20930;BME280;21895;47.072;15.132;2023-08-17T09:59:20;96935.00;;;29.90;48.11
20930;BME280;21895;47.072;15.132;2023-08-17T10:01:50;96924.00;;;30.29;46.84
20930;BME280;21895;47.072;15.132;2023-08-17T10:04:23;96926.00;;;30.29;47.52
20930;BME280;21895;47.072;15.132;2023-08-17T10:07:00;96921.00;;;30.54;46.38
20930;BME280;21895;47.072;15.132;2023-08-17T10:09:36;96926.00;;;30.60;46.57
20930;BME280;21895;47.072;15.132;2023-08-17T10:12:13;96922.00;;;30.56;46.19
20930;BME280;21895;47.072;15.132;2023-08-17T10:14:57;96928.00;;;30.21;47.78
20930;BME280;21895;47.072;15.132;2023-08-17T10:17:36;96917.00;;;30.21;47.56
20930;BME280;21895;47.072;15.132;2023-08-17T10:20:07;96908.00;;;30.42;46.81
20930;BME280;21895;47.072;15.132;2023-08-17T10:22:49;96924.00;;;30.13;47.26
20930;BME280;21895;47.072;15.132;2023-08-17T10:25:19;96915.00;;;30.18;48.11
20930;BME280;21895;47.072;15.132;2023-08-17T10:27:47;96915.00;;;30.32;47.74
20930;BME280;21895;47.072;15.132;2023-08-17T10:30:15;96909.00;;;30.39;47.79
20930;BME280;21895;47.072;15.132;2023-08-17T10:32:42;96912.00;;;30.41;47.19
20930;BME280;21895;47.072;15.132;2023-08-17T10:35:13;96909.00;;;30.39;47.25
20930;BME280;21895;47.072;15.132;2023-08-17T10:37:40;96908.00;;;30.63;47.29
20930;BME280;21895;47.072;15.132;2023-08-17T10:40:08;96911.00;;;30.33;47.14
20930;BME280;21895;47.072;15.132;2023-08-17T10:42:41;96914.00;;;30.35;47.21
20930;BME280;21895;47.072;15.132;2023-08-17T10:45:31;96906.00;;;30.33;47.75
20930;BME280;21895;47.072;15.132;2023-08-17T10:49:02;96899.00;;;30.59;47.26
20930;BME280;21895;47.072;15.132;2023-08-17T10:51:30;96899.00;;;30.20;48.09
20930;BME280;21895;47.072;15.132;2023-08-17T10:54:01;96901.00;;;30.02;49.11
20930;BME280;21895;47.072;15.132;2023-08-17T10:56:29;96893.00;;;29.92;48.94
20930;BME280;21895;47.072;15.132;2023-08-17T10:59:02;96899.00;;;30.09;49.14
20930;BME280;21895;47.072;15.132;2023-08-17T11:01:51;96898.00;;;30.41;46.55
20930;BME280;21895;47.072;15.132;2023-08-17T11:04:18;96897.00;;;30.38;47.97
20930;BME280;21895;47.072;15.132;2023-08-17T11:06:45;96896.00;;;30.44;46.64
20930;BME280;21895;47.072;15.132;2023-08-17T11:09:16;96896.00;;;30.38;47.11
20930;BME280;21895;47.072;15.132;2023-08-17T11:11:52;96893.00;;;30.41;46.82
20930;BME280;21895;47.072;15.132;2023-08-17T11:14:20;96880.00;;;30.27;47.52
20930;BME280;21895;47.072;15.132;2023-08-17T11:16:49;96880.00;;;30.50;47.53
20930;BME280;21895;47.072;15.132;2023-08-17T11:19:18;96883.00;;;30.82;46.91
20930;BME280;21895;47.072;15.132;2023-08-17T11:21:45;96876.00;;;30.84;46.91
20930;BME280;21895;47.072;15.132;2023-08-17T11:24:13;96872.00;;;30.85;45.99
20930;BME280;21895;47.072;15.132;2023-08-17T11:26:40;96874.00;;;31.06;46.65
20930;BME280;21895;47.072;15.132;2023-08-17T11:29:07;96868.00;;;31.25;45.59
20930;BME280;21895;47.072;15.132;2023-08-17T11:31:34;96864.00;;;31.49;43.62
20930;BME280;21895;47.072;15.132;2023-08-17T11:34:01;96865.00;;;31.37;43.08
20930;BME280;21895;47.072;15.132;2023-08-17T11:36:27;96865.00;;;31.36;43.90
20930;BME280;21895;47.072;15.132;2023-08-17T11:38:54;96864.00;;;31.56;44.03
20930;BME280;21895;47.072;15.132;2023-08-17T11:41:21;96859.00;;;31.37;43.29
20930;BME280;21895;47.072;15.132;2023-08-17T11:43:49;96855.00;;;31.40;44.06
20930;BME280;21895;47.072;15.132;2023-08-17T11:46:16;96852.00;;;31.43;44.64
20930;BME280;21895;47.072;15.132;2023-08-17T11:48:43;96853.00;;;31.40;43.69
20930;BME280;21895;47.072;15.132;2023-08-17T11:51:10;96845.00;;;31.30;42.50
20930;BME280;21895;47.072;15.132;2023-08-17T11:53:38;96852.00;;;31.11;44.49
20930;BME280;21895;47.072;15.132;2023-08-17T11:56:12;96856.00;;;31.24;44.70
20930;BME280;21895;47.072;15.132;2023-08-17T11:58:43;96841.00;;;31.34;43.85
20930;BME280;21895;47.072;15.132;2023-08-17T12:01:13;96842.00;;;31.47;43.00
20930;BME280;21895;47.072;15.132;2023-08-17T12:03:42;96842.00;;;31.67;43.85
20930;BME280;21895;47.072;15.132;2023-08-17T12:06:10;96844.00;;;31.84;43.39
20930;BME280;21895;47.072;15.132;2023-08-17T12:08:42;96834.00;;;31.72;42.97
20930;BME280;21895;47.072;15.132;2023-08-17T12:11:12;96845.00;;;31.81;43.68
20930;BME280;21895;47.072;15.132;2023-08-17T12:13:39;96837.00;;;31.71;41.98
20930;BME280;21895;47.072;15.132;2023-08-17T12:16:05;96842.00;;;31.61;42.20
20930;BME280;21895;47.072;15.132;2023-08-17T12:18:33;96832.00;;;31.41;42.74
20930;BME280;21895;47.072;15.132;2023-08-17T12:21:00;96832.00;;;31.46;42.82
20930;BME280;21895;47.072;15.132;2023-08-17T12:23:27;96843.00;;;31.62;43.37
20930;BME280;21895;47.072;15.132;2023-08-17T12:25:56;96831.00;;;31.66;42.40
20930;BME280;21895;47.072;15.132;2023-08-17T12:28:24;96829.00;;;31.62;42.24
20930;BME280;21895;47.072;15.132;2023-08-17T12:31:02;96816.00;;;31.64;41.62
20930;BME280;21895;47.072;15.132;2023-08-17T12:33:29;96829.00;;;31.74;42.67
20930;BME280;21895;47.072;15.132;2023-08-17T12:35:56;96818.00;;;31.57;42.63
20930;BME280;21895;47.072;15.132;2023-08-17T12:38:24;96812.00;;;31.65;41.76
20930;BME280;21895;47.072;15.132;2023-08-17T12:40:51;96805.00;;;31.78;42.05
20930;BME280;21895;47.072;15.132;2023-08-17T12:43:18;96805.00;;;31.91;42.83
20930;BME280;21895;47.072;15.132;2023-08-17T12:45:45;96809.00;;;31.81;42.40
20930;BME280;21895;47.072;15.132;2023-08-17T12:48:11;96807.00;;;31.53;42.87
20930;BME280;21895;47.072;15.132;2023-08-17T12:50:38;96811.00;;;31.93;42.64
20930;BME280;21895;47.072;15.132;2023-08-17T12:53:09;96806.00;;;32.07;42.24
20930;BME280;21895;47.072;15.132;2023-08-17T12:55:36;96792.00;;;32.14;42.10
20930;BME280;21895;47.072;15.132;2023-08-17T12:58:03;96793.00;;;32.11;41.67
20930;BME280;21895;47.072;15.132;2023-08-17T13:00:29;96790.00;;;32.38;41.77
20930;BME280;21895;47.072;15.132;2023-08-17T13:02:56;96796.00;;;32.47;40.78
20930;BME280;21895;47.072;15.132;2023-08-17T13:05:23;96794.00;;;32.62;40.92